sensor_id;sensor_type;location;lat;lon;timestamp;P1;durP1;ratioP1;P2;durP2;ratioP2
14235;SDS011;7202;50.718;7.072;2022-08-21T00:01:10;5.93;;;4.15;;
14235;SDS011;7202;50.718;7.072;2022-08-21T00:03:42;8.65;;;4.88;;
14235;SDS011;7202;50.718;7.072;2022-08-21T00:06:11;8.32;;;3.50;;
14235;SDS011;7202;50.718;7.072;2022-08-21T00:08:40;6.75;;;3.65;;
14235;SDS011;7202;50.718;7.072;2022-08-21T00:11:10;5.43;;;3.72;;
14235;SDS011;7202;50.718;7.072;2022-08-21T00:13:39;6.55;;;3.42;;
14235;SDS011;7202;50.718;7.072;2022-08-21T00:16:07;5.97;;;3.72;;
14235;SDS011;7202;50.718;7.072;2022-08-21T00:18:36;7.63;;;3.83;;
14235;SDS011;7202;50.718;7.072;2022-08-21T00:21:05;6.07;;;4.22;;
14235;SDS011;7202;50.718;7.072;2022-08-21T00:23:34;5.63;;;3.60;;
14235;SDS011;7202;50.718;7.072;2022-08-21T00:26:04;9.02;;;4.10;;
14235;SDS011;7202;50.718;7.072;2022-08-21T00:28:34;7.28;;;4.30;;
14235;SDS011;7202;50.718;7.072;2022-08-21T00:31:03;8.05;;;3.88;;
14235;SDS011;7202;50.718;7.072;2022-08-21T00:33:32;6.05;;;3.80;;
14235;SDS011;7202;50.718;7.072;2022-08-21T00:36:01;7.63;;;4.25;;
14235;SDS011;7202;50.718;7.072;2022-08-21T00:38:30;5.80;;;4.13;;
14235;SDS011;7202;50.718;7.072;2022-08-21T00:41:00;5.20;;;3.53;;
14235;SDS011;7202;50.718;7.072;2022-08-21T00:43:51;7.03;;;4.10;;
14235;SDS011;7202;50.718;7.072;2022-08-21T00:46:20;10.77;;;4.15;;
14235;SDS011;7202;50.718;7.072;2022-08-21T00:48:54;6.43;;;3.60;;
14235;SDS011;7202;50.718;7.072;2022-08-21T00:51:25;6.30;;;3.70;;
14235;SDS011;7202;50.718;7.072;2022-08-21T00:54:04;6.60;;;3.97;;
14235;SDS011;7202;50.718;7.072;2022-08-21T00:56:45;8.40;;;4.68;;
14235;SDS011;7202;50.718;7.072;2022-08-21T00:59:18;7.90;;;4.20;;
14235;SDS011;7202;50.718;7.072;2022-08-21T01:01:49;6.63;;;4.05;;
14235;SDS011;7202;50.718;7.072;2022-08-21T01:04:19;8.52;;;4.15;;
14235;SDS011;7202;50.718;7.072;2022-08-21T01:06:48;6.90;;;4.07;;
14235;SDS011;7202;50.718;7.072;2022-08-21T01:09:18;6.53;;;3.80;;
14235;SDS011;7202;50.718;7.072;2022-08-21T01:11:47;5.65;;;3.78;;
14235;SDS011;7202;50.718;7.072;2022-08-21T01:14:16;6.10;;;3.95;;
14235;SDS011;7202;50.718;7.072;2022-08-21T01:16:47;10.18;;;3.90;;
14235;SDS011;7202;50.718;7.072;2022-08-21T01:19:20;5.82;;;3.95;;
14235;SDS011;7202;50.718;7.072;2022-08-21T01:21:51;5.20;;;4.20;;
14235;SDS011;7202;50.718;7.072;2022-08-21T01:24:21;6.50;;;4.00;;
14235;SDS011;7202;50.718;7.072;2022-08-21T01:26:50;9.10;;;3.97;;
14235;SDS011;7202;50.718;7.072;2022-08-21T01:29:26;5.13;;;3.80;;
14235;SDS011;7202;50.718;7.072;2022-08-21T01:32:02;7.55;;;4.13;;
14235;SDS011;7202;50.718;7.072;2022-08-21T01:34:32;5.30;;;3.60;;
14235;SDS011;7202;50.718;7.072;2022-08-21T01:37:05;9.00;;;4.40;;
14235;SDS011;7202;50.718;7.072;2022-08-21T01:39:34;8.02;;;4.10;;
14235;SDS011;7202;50.718;7.072;2022-08-21T01:42:04;6.28;;;4.30;;
14235;SDS011;7202;50.718;7.072;2022-08-21T01:44:33;8.38;;;4.68;;
14235;SDS011;7202;50.718;7.072;2022-08-21T01:47:05;7.57;;;4.03;;
14235;SDS011;7202;50.718;7.072;2022-08-21T01:49:36;7.40;;;4.00;;
14235;SDS011;7202;50.718;7.072;2022-08-21T01:52:07;7.32;;;4.50;;
14235;SDS011;7202;50.718;7.072;2022-08-21T01:54:36;11.15;;;4.47;;
14235;SDS011;7202;50.718;7.072;2022-08-21T01:57:05;6.80;;;4.35;;
14235;SDS011;7202;50.718;7.072;2022-08-21T01:59:34;11.15;;;4.43;;
14235;SDS011;7202;50.718;7.072;2022-08-21T02:02:05;10.35;;;4.72;;
14235;SDS011;7202;50.718;7.072;2022-08-21T02:04:34;6.78;;;3.88;;
14235;SDS011;7202;50.718;7.072;2022-08-21T02:07:03;6.85;;;4.30;;
14235;SDS011;7202;50.718;7.072;2022-08-21T02:09:37;7.57;;;4.22;;
14235;SDS011;7202;50.718;7.072;2022-08-21T02:12:08;6.80;;;4.32;;
14235;SDS011;7202;50.718;7.072;2022-08-21T02:14:37;8.25;;;4.25;;
14235;SDS011;7202;50.718;7.072;2022-08-21T02:17:06;5.63;;;4.32;;
14235;SDS011;7202;50.718;7.072;2022-08-21T02:19:36;5.70;;;3.90;;
14235;SDS011;7202;50.718;7.072;2022-08-21T02:22:07;7.90;;;4.38;;
14235;SDS011;7202;50.718;7.072;2022-08-21T02:24:36;7.68;;;3.97;;
14235;SDS011;7202;50.718;7.072;2022-08-21T02:27:21;7.25;;;4.38;;
14235;SDS011;7202;50.718;7.072;2022-08-21T02:29:53;8.38;;;4.53;;
14235;SDS011;7202;50.718;7.072;2022-08-21T02:32:24;5.72;;;4.20;;
14235;SDS011;7202;50.718;7.072;2022-08-21T02:34:53;6.13;;;4.60;;
14235;SDS011;7202;50.718;7.072;2022-08-21T02:37:22;5.10;;;4.40;;
14235;SDS011;7202;50.718;7.072;2022-08-21T02:39:53;8.43;;;4.47;;
14235;SDS011;7202;50.718;7.072;2022-08-21T02:42:21;6.55;;;4.63;;
14235;SDS011;7202;50.718;7.072;2022-08-21T02:44:50;7.30;;;4.50;;
14235;SDS011;7202;50.718;7.072;2022-08-21T02:47:19;6.05;;;4.57;;
14235;SDS011;7202;50.718;7.072;2022-08-21T02:49:47;5.85;;;4.43;;
14235;SDS011;7202;50.718;7.072;2022-08-21T02:52:16;7.45;;;4.50;;
14235;SDS011;7202;50.718;7.072;2022-08-21T02:54:44;6.95;;;4.95;;
14235;SDS011;7202;50.718;7.072;2022-08-21T02:57:15;8.48;;;6.35;;
14235;SDS011;7202;50.718;7.072;2022-08-21T02:59:43;8.23;;;4.82;;
14235;SDS011;7202;50.718;7.072;2022-08-21T03:02:13;10.45;;;5.10;;
14235;SDS011;7202;50.718;7.072;2022-08-21T03:04:42;7.00;;;5.22;;
14235;SDS011;7202;50.718;7.072;2022-08-21T03:07:12;8.00;;;4.90;;
14235;SDS011;7202;50.718;7.072;2022-08-21T03:09:43;7.82;;;4.82;;
14235;SDS011;7202;50.718;7.072;2022-08-21T03:12:23;8.82;;;5.28;;
14235;SDS011;7202;50.718;7.072;2022-08-21T03:14:55;7.85;;;4.95;;
14235;SDS011;7202;50.718;7.072;2022-08-21T03:17:24;5.28;;;4.78;;
14235;SDS011;7202;50.718;7.072;2022-08-21T03:19:56;8.23;;;5.00;;
14235;SDS011;7202;50.718;7.072;2022-08-21T03:22:25;12.82;;;5.00;;
14235;SDS011;7202;50.718;7.072;2022-08-21T03:24:56;10.18;;;4.85;;
14235;SDS011;7202;50.718;7.072;2022-08-21T03:27:27;5.20;;;4.63;;
14235;SDS011;7202;50.718;7.072;2022-08-21T03:29:57;5.90;;;4.68;;
14235;SDS011;7202;50.718;7.072;2022-08-21T03:32:26;6.68;;;5.32;;
14235;SDS011;7202;50.718;7.072;2022-08-21T03:34:56;6.82;;;4.90;;
14235;SDS011;7202;50.718;7.072;2022-08-21T03:37:24;7.32;;;4.72;;
14235;SDS011;7202;50.718;7.072;2022-08-21T03:39:54;9.13;;;4.90;;
14235;SDS011;7202;50.718;7.072;2022-08-21T03:42:23;10.60;;;5.68;;
14235;SDS011;7202;50.718;7.072;2022-08-21T03:44:53;9.77;;;4.72;;
14235;SDS011;7202;50.718;7.072;2022-08-21T03:47:21;8.05;;;4.90;;
14235;SDS011;7202;50.718;7.072;2022-08-21T03:49:50;6.00;;;4.65;;
14235;SDS011;7202;50.718;7.072;2022-08-21T03:52:19;8.10;;;4.82;;
14235;SDS011;7202;50.718;7.072;2022-08-21T03:54:47;5.82;;;4.75;;
14235;SDS011;7202;50.718;7.072;2022-08-21T03:57:17;8.20;;;4.53;;
14235;SDS011;7202;50.718;7.072;2022-08-21T03:59:46;10.23;;;4.90;;
14235;SDS011;7202;50.718;7.072;2022-08-21T04:02:16;5.65;;;4.85;;
14235;SDS011;7202;50.718;7.072;2022-08-21T04:04:48;10.35;;;4.97;;
14235;SDS011;7202;50.718;7.072;2022-08-21T04:07:16;6.75;;;4.90;;
14235;SDS011;7202;50.718;7.072;2022-08-21T04:09:45;5.63;;;4.47;;
14235;SDS011;7202;50.718;7.072;2022-08-21T04:12:13;7.88;;;5.07;;
14235;SDS011;7202;50.718;7.072;2022-08-21T04:14:42;9.52;;;4.97;;
14235;SDS011;7202;50.718;7.072;2022-08-21T04:17:11;7.75;;;4.78;;
14235;SDS011;7202;50.718;7.072;2022-08-21T04:19:41;9.27;;;5.13;;
14235;SDS011;7202;50.718;7.072;2022-08-21T04:22:09;11.98;;;5.35;;
14235;SDS011;7202;50.718;7.072;2022-08-21T04:24:38;6.97;;;5.32;;
14235;SDS011;7202;50.718;7.072;2022-08-21T04:27:07;8.82;;;5.03;;
14235;SDS011;7202;50.718;7.072;2022-08-21T04:29:35;6.72;;;4.72;;
14235;SDS011;7202;50.718;7.072;2022-08-21T04:32:06;8.15;;;5.13;;
14235;SDS011;7202;50.718;7.072;2022-08-21T04:34:34;9.10;;;5.20;;
14235;SDS011;7202;50.718;7.072;2022-08-21T04:37:05;6.95;;;5.00;;
14235;SDS011;7202;50.718;7.072;2022-08-21T04:39:33;6.22;;;4.80;;
14235;SDS011;7202;50.718;7.072;2022-08-21T04:42:02;7.10;;;4.82;;
14235;SDS011;7202;50.718;7.072;2022-08-21T04:44:33;11.07;;;4.95;;
14235;SDS011;7202;50.718;7.072;2022-08-21T04:47:02;6.93;;;4.90;;
14235;SDS011;7202;50.718;7.072;2022-08-21T04:49:31;8.05;;;4.88;;
14235;SDS011;7202;50.718;7.072;2022-08-21T04:51:59;10.98;;;5.13;;
14235;SDS011;7202;50.718;7.072;2022-08-21T04:54:30;9.68;;;4.53;;
14235;SDS011;7202;50.718;7.072;2022-08-21T04:56:59;8.38;;;4.78;;
14235;SDS011;7202;50.718;7.072;2022-08-21T04:59:33;8.00;;;4.97;;
14235;SDS011;7202;50.718;7.072;2022-08-21T05:02:05;6.28;;;4.57;;
14235;SDS011;7202;50.718;7.072;2022-08-21T05:04:36;9.40;;;4.78;;
14235;SDS011;7202;50.718;7.072;2022-08-21T05:07:10;8.98;;;5.28;;
14235;SDS011;7202;50.718;7.072;2022-08-21T05:10:05;7.90;;;4.53;;
14235;SDS011;7202;50.718;7.072;2022-08-21T05:12:35;7.45;;;4.88;;
14235;SDS011;7202;50.718;7.072;2022-08-21T05:15:04;7.03;;;4.70;;
14235;SDS011;7202;50.718;7.072;2022-08-21T05:17:38;6.45;;;4.70;;
14235;SDS011;7202;50.718;7.072;2022-08-21T05:20:07;9.20;;;4.63;;
14235;SDS011;7202;50.718;7.072;2022-08-21T05:22:37;8.63;;;4.93;;
14235;SDS011;7202;50.718;7.072;2022-08-21T05:25:08;6.85;;;4.43;;
14235;SDS011;7202;50.718;7.072;2022-08-21T05:27:38;7.30;;;5.15;;
14235;SDS011;7202;50.718;7.072;2022-08-21T05:30:09;8.95;;;4.93;;
14235;SDS011;7202;50.718;7.072;2022-08-21T05:32:38;7.25;;;4.88;;
14235;SDS011;7202;50.718;7.072;2022-08-21T05:35:07;6.53;;;4.93;;
14235;SDS011;7202;50.718;7.072;2022-08-21T05:37:36;7.78;;;4.90;;
14235;SDS011;7202;50.718;7.072;2022-08-21T05:40:06;9.98;;;4.78;;
14235;SDS011;7202;50.718;7.072;2022-08-21T05:42:47;7.68;;;4.63;;
14235;SDS011;7202;50.718;7.072;2022-08-21T05:45:21;6.57;;;4.53;;
14235;SDS011;7202;50.718;7.072;2022-08-21T05:48:10;8.82;;;5.18;;
14235;SDS011;7202;50.718;7.072;2022-08-21T05:50:40;9.15;;;4.85;;
14235;SDS011;7202;50.718;7.072;2022-08-21T05:53:09;6.15;;;4.93;;
14235;SDS011;7202;50.718;7.072;2022-08-21T05:55:40;7.75;;;5.18;;
14235;SDS011;7202;50.718;7.072;2022-08-21T05:58:12;9.68;;;5.60;;
14235;SDS011;7202;50.718;7.072;2022-08-21T06:00:42;7.20;;;5.07;;
14235;SDS011;7202;50.718;7.072;2022-08-21T06:03:12;10.45;;;5.00;;
14235;SDS011;7202;50.718;7.072;2022-08-21T06:05:44;7.10;;;5.25;;
14235;SDS011;7202;50.718;7.072;2022-08-21T06:08:13;7.53;;;5.55;;
14235;SDS011;7202;50.718;7.072;2022-08-21T06:10:43;8.00;;;5.40;;
14235;SDS011;7202;50.718;7.072;2022-08-21T06:13:12;9.75;;;6.10;;
14235;SDS011;7202;50.718;7.072;2022-08-21T06:15:41;8.52;;;5.80;;
14235;SDS011;7202;50.718;7.072;2022-08-21T06:18:10;9.95;;;5.07;;
14235;SDS011;7202;50.718;7.072;2022-08-21T06:20:40;9.55;;;5.63;;
14235;SDS011;7202;50.718;7.072;2022-08-21T06:23:09;8.07;;;5.35;;
14235;SDS011;7202;50.718;7.072;2022-08-21T06:25:37;13.00;;;5.28;;
14235;SDS011;7202;50.718;7.072;2022-08-21T06:28:08;7.93;;;5.30;;
14235;SDS011;7202;50.718;7.072;2022-08-21T06:30:38;14.70;;;6.00;;
14235;SDS011;7202;50.718;7.072;2022-08-21T06:33:07;5.28;;;4.72;;
14235;SDS011;7202;50.718;7.072;2022-08-21T06:35:36;8.30;;;4.95;;
14235;SDS011;7202;50.718;7.072;2022-08-21T06:38:07;8.15;;;4.95;;
14235;SDS011;7202;50.718;7.072;2022-08-21T06:40:37;9.77;;;5.13;;
14235;SDS011;7202;50.718;7.072;2022-08-21T06:43:15;9.90;;;5.55;;
14235;SDS011;7202;50.718;7.072;2022-08-21T06:45:44;10.73;;;5.25;;
14235;SDS011;7202;50.718;7.072;2022-08-21T06:48:13;13.88;;;5.47;;
14235;SDS011;7202;50.718;7.072;2022-08-21T06:50:46;7.22;;;4.65;;
14235;SDS011;7202;50.718;7.072;2022-08-21T06:53:15;8.32;;;4.97;;
14235;SDS011;7202;50.718;7.072;2022-08-21T06:55:46;6.20;;;4.72;;
14235;SDS011;7202;50.718;7.072;2022-08-21T06:58:17;6.82;;;4.30;;
14235;SDS011;7202;50.718;7.072;2022-08-21T07:00:47;8.80;;;4.40;;
14235;SDS011;7202;50.718;7.072;2022-08-21T07:03:21;6.97;;;4.53;;
14235;SDS011;7202;50.718;7.072;2022-08-21T07:05:51;6.18;;;4.20;;
14235;SDS011;7202;50.718;7.072;2022-08-21T07:08:20;11.88;;;4.60;;
14235;SDS011;7202;50.718;7.072;2022-08-21T07:10:49;9.48;;;4.95;;
14235;SDS011;7202;50.718;7.072;2022-08-21T07:13:20;9.10;;;5.47;;
14235;SDS011;7202;50.718;7.072;2022-08-21T07:15:48;8.52;;;4.28;;
14235;SDS011;7202;50.718;7.072;2022-08-21T07:18:17;7.00;;;3.83;;
14235;SDS011;7202;50.718;7.072;2022-08-21T07:20:46;6.40;;;3.28;;
14235;SDS011;7202;50.718;7.072;2022-08-21T07:23:17;6.88;;;3.92;;
14235;SDS011;7202;50.718;7.072;2022-08-21T07:25:50;6.22;;;3.58;;
14235;SDS011;7202;50.718;7.072;2022-08-21T07:28:20;6.25;;;3.58;;
14235;SDS011;7202;50.718;7.072;2022-08-21T07:30:49;8.27;;;3.95;;
14235;SDS011;7202;50.718;7.072;2022-08-21T07:33:19;4.70;;;3.28;;
14235;SDS011;7202;50.718;7.072;2022-08-21T07:35:48;10.30;;;3.78;;
14235;SDS011;7202;50.718;7.072;2022-08-21T07:38:17;5.38;;;3.47;;
14235;SDS011;7202;50.718;7.072;2022-08-21T07:40:46;6.30;;;3.38;;
14235;SDS011;7202;50.718;7.072;2022-08-21T07:43:15;9.27;;;3.33;;
14235;SDS011;7202;50.718;7.072;2022-08-21T07:45:46;10.35;;;3.67;;
14235;SDS011;7202;50.718;7.072;2022-08-21T07:48:16;6.60;;;3.28;;
14235;SDS011;7202;50.718;7.072;2022-08-21T07:50:44;6.82;;;3.00;;
14235;SDS011;7202;50.718;7.072;2022-08-21T07:53:13;7.90;;;3.70;;
14235;SDS011;7202;50.718;7.072;2022-08-21T07:55:42;6.13;;;2.80;;
14235;SDS011;7202;50.718;7.072;2022-08-21T07:58:11;7.88;;;3.05;;
14235;SDS011;7202;50.718;7.072;2022-08-21T08:00:40;7.32;;;2.95;;
14235;SDS011;7202;50.718;7.072;2022-08-21T08:03:10;5.93;;;2.88;;
14235;SDS011;7202;50.718;7.072;2022-08-21T08:05:39;4.35;;;2.50;;
14235;SDS011;7202;50.718;7.072;2022-08-21T08:08:07;4.45;;;2.75;;
14235;SDS011;7202;50.718;7.072;2022-08-21T08:10:37;5.38;;;2.50;;
14235;SDS011;7202;50.718;7.072;2022-08-21T08:13:06;6.88;;;2.58;;
14235;SDS011;7202;50.718;7.072;2022-08-21T08:15:36;6.43;;;2.88;;
14235;SDS011;7202;50.718;7.072;2022-08-21T08:18:05;8.55;;;2.63;;
14235;SDS011;7202;50.718;7.072;2022-08-21T08:20:35;5.93;;;2.60;;
14235;SDS011;7202;50.718;7.072;2022-08-21T08:23:04;4.53;;;2.20;;
14235;SDS011;7202;50.718;7.072;2022-08-21T08:25:32;4.03;;;2.50;;
14235;SDS011;7202;50.718;7.072;2022-08-21T08:28:03;6.53;;;2.70;;
14235;SDS011;7202;50.718;7.072;2022-08-21T08:30:43;5.07;;;2.10;;
14235;SDS011;7202;50.718;7.072;2022-08-21T08:33:12;4.38;;;2.40;;
14235;SDS011;7202;50.718;7.072;2022-08-21T08:35:44;5.55;;;2.67;;
14235;SDS011;7202;50.718;7.072;2022-08-21T08:38:15;7.55;;;2.20;;
14235;SDS011;7202;50.718;7.072;2022-08-21T08:40:49;5.50;;;2.30;;
14235;SDS011;7202;50.718;7.072;2022-08-21T08:43:21;8.45;;;2.50;;
14235;SDS011;7202;50.718;7.072;2022-08-21T08:45:50;6.32;;;2.13;;
14235;SDS011;7202;50.718;7.072;2022-08-21T08:48:26;6.43;;;2.47;;
14235;SDS011;7202;50.718;7.072;2022-08-21T08:51:05;5.88;;;2.50;;
14235;SDS011;7202;50.718;7.072;2022-08-21T08:53:46;7.85;;;2.80;;
14235;SDS011;7202;50.718;7.072;2022-08-21T08:56:22;7.22;;;2.78;;
14235;SDS011;7202;50.718;7.072;2022-08-21T08:58:56;7.55;;;3.22;;
14235;SDS011;7202;50.718;7.072;2022-08-21T09:01:29;5.75;;;2.55;;
14235;SDS011;7202;50.718;7.072;2022-08-21T09:04:04;5.78;;;2.47;;
14235;SDS011;7202;50.718;7.072;2022-08-21T09:06:39;4.80;;;2.33;;
14235;SDS011;7202;50.718;7.072;2022-08-21T09:09:21;4.60;;;2.22;;
14235;SDS011;7202;50.718;7.072;2022-08-21T09:11:57;4.57;;;2.42;;
14235;SDS011;7202;50.718;7.072;2022-08-21T09:14:38;4.57;;;2.03;;
14235;SDS011;7202;50.718;7.072;2022-08-21T09:17:21;6.28;;;2.25;;
14235;SDS011;7202;50.718;7.072;2022-08-21T09:20:08;4.05;;;1.88;;
14235;SDS011;7202;50.718;7.072;2022-08-21T09:22:52;5.60;;;2.10;;
14235;SDS011;7202;50.718;7.072;2022-08-21T09:25:33;2.42;;;1.80;;
14235;SDS011;7202;50.718;7.072;2022-08-21T09:28:09;4.28;;;1.90;;
14235;SDS011;7202;50.718;7.072;2022-08-21T09:30:41;6.53;;;1.98;;
14235;SDS011;7202;50.718;7.072;2022-08-21T09:33:11;7.43;;;2.10;;
14235;SDS011;7202;50.718;7.072;2022-08-21T09:35:50;5.25;;;1.98;;
14235;SDS011;7202;50.718;7.072;2022-08-21T09:38:26;4.60;;;2.08;;
14235;SDS011;7202;50.718;7.072;2022-08-21T09:41:00;6.95;;;2.05;;
14235;SDS011;7202;50.718;7.072;2022-08-21T09:43:31;4.97;;;1.88;;
14235;SDS011;7202;50.718;7.072;2022-08-21T09:46:05;4.50;;;2.28;;
14235;SDS011;7202;50.718;7.072;2022-08-21T09:48:41;6.60;;;2.13;;
14235;SDS011;7202;50.718;7.072;2022-08-21T09:51:15;6.43;;;2.17;;
14235;SDS011;7202;50.718;7.072;2022-08-21T09:53:48;4.93;;;2.05;;
14235;SDS011;7202;50.718;7.072;2022-08-21T09:56:27;4.43;;;2.08;;
14235;SDS011;7202;50.718;7.072;2022-08-21T09:59:17;5.90;;;2.10;;
14235;SDS011;7202;50.718;7.072;2022-08-21T10:01:49;4.22;;;2.03;;
14235;SDS011;7202;50.718;7.072;2022-08-21T10:04:21;5.13;;;1.90;;
14235;SDS011;7202;50.718;7.072;2022-08-21T10:06:52;5.95;;;2.20;;
14235;SDS011;7202;50.718;7.072;2022-08-21T10:09:25;3.78;;;1.75;;
14235;SDS011;7202;50.718;7.072;2022-08-21T10:11:56;3.58;;;1.90;;
14235;SDS011;7202;50.718;7.072;2022-08-21T10:14:41;6.18;;;1.70;;
14235;SDS011;7202;50.718;7.072;2022-08-21T10:17:17;4.38;;;1.88;;
14235;SDS011;7202;50.718;7.072;2022-08-21T10:19:55;5.55;;;1.83;;
14235;SDS011;7202;50.718;7.072;2022-08-21T10:22:32;4.30;;;1.67;;
14235;SDS011;7202;50.718;7.072;2022-08-21T10:25:12;5.10;;;2.20;;
14235;SDS011;7202;50.718;7.072;2022-08-21T10:27:48;4.20;;;1.73;;
14235;SDS011;7202;50.718;7.072;2022-08-21T10:30:30;3.20;;;2.00;;
14235;SDS011;7202;50.718;7.072;2022-08-21T10:33:11;4.55;;;1.80;;
14235;SDS011;7202;50.718;7.072;2022-08-21T10:35:49;4.28;;;2.20;;
14235;SDS011;7202;50.718;7.072;2022-08-21T10:41:52;4.13;;;1.73;;
14235;SDS011;7202;50.718;7.072;2022-08-21T10:44:34;6.82;;;2.03;;
14235;SDS011;7202;50.718;7.072;2022-08-21T10:47:11;6.93;;;1.98;;
14235;SDS011;7202;50.718;7.072;2022-08-21T10:49:49;6.85;;;1.80;;
14235;SDS011;7202;50.718;7.072;2022-08-21T10:52:30;4.57;;;1.80;;
14235;SDS011;7202;50.718;7.072;2022-08-21T10:55:11;4.68;;;1.90;;
14235;SDS011;7202;50.718;7.072;2022-08-21T10:57:49;4.95;;;1.80;;
14235;SDS011;7202;50.718;7.072;2022-08-21T11:00:23;5.10;;;1.80;;
14235;SDS011;7202;50.718;7.072;2022-08-21T11:02:57;4.35;;;1.98;;
14235;SDS011;7202;50.718;7.072;2022-08-21T11:05:32;4.05;;;2.03;;
14235;SDS011;7202;50.718;7.072;2022-08-21T11:08:04;3.70;;;1.70;;
14235;SDS011;7202;50.718;7.072;2022-08-21T11:10:39;4.82;;;1.80;;
14235;SDS011;7202;50.718;7.072;2022-08-21T11:13:29;8.18;;;2.35;;
14235;SDS011;7202;50.718;7.072;2022-08-21T11:16:05;5.63;;;1.80;;
14235;SDS011;7202;50.718;7.072;2022-08-21T11:18:39;2.90;;;1.67;;
14235;SDS011;7202;50.718;7.072;2022-08-21T11:21:20;2.55;;;1.33;;
14235;SDS011;7202;50.718;7.072;2022-08-21T11:24:00;3.95;;;1.55;;
14235;SDS011;7202;50.718;7.072;2022-08-21T11:26:34;2.58;;;1.70;;
14235;SDS011;7202;50.718;7.072;2022-08-21T11:29:10;5.00;;;2.20;;
14235;SDS011;7202;50.718;7.072;2022-08-21T11:31:47;4.53;;;2.00;;
14235;SDS011;7202;50.718;7.072;2022-08-21T11:34:34;5.68;;;1.80;;
14235;SDS011;7202;50.718;7.072;2022-08-21T11:37:14;4.25;;;1.63;;
14235;SDS011;7202;50.718;7.072;2022-08-21T11:39:51;3.28;;;1.52;;
14235;SDS011;7202;50.718;7.072;2022-08-21T11:42:29;2.58;;;1.30;;
14235;SDS011;7202;50.718;7.072;2022-08-21T11:45:09;3.67;;;1.90;;
14235;SDS011;7202;50.718;7.072;2022-08-21T11:47:54;4.95;;;1.70;;
14235;SDS011;7202;50.718;7.072;2022-08-21T11:50:29;4.20;;;2.05;;
14235;SDS011;7202;50.718;7.072;2022-08-21T11:53:05;4.15;;;1.42;;
14235;SDS011;7202;50.718;7.072;2022-08-21T11:55:41;3.83;;;1.88;;
14235;SDS011;7202;50.718;7.072;2022-08-21T11:58:15;4.93;;;1.70;;
14235;SDS011;7202;50.718;7.072;2022-08-21T12:00:49;4.20;;;1.50;;
14235;SDS011;7202;50.718;7.072;2022-08-21T12:03:22;3.67;;;1.85;;
14235;SDS011;7202;50.718;7.072;2022-08-21T12:05:57;4.15;;;1.45;;
14235;SDS011;7202;50.718;7.072;2022-08-21T12:08:28;4.80;;;1.70;;
14235;SDS011;7202;50.718;7.072;2022-08-21T12:11:00;4.03;;;1.63;;
14235;SDS011;7202;50.718;7.072;2022-08-21T12:13:34;5.78;;;1.90;;
14235;SDS011;7202;50.718;7.072;2022-08-21T12:16:13;2.85;;;1.65;;
14235;SDS011;7202;50.718;7.072;2022-08-21T12:18:42;2.97;;;1.42;;
14235;SDS011;7202;50.718;7.072;2022-08-21T12:21:20;2.72;;;1.38;;
14235;SDS011;7202;50.718;7.072;2022-08-21T12:23:59;3.33;;;1.42;;
14235;SDS011;7202;50.718;7.072;2022-08-21T12:26:32;3.50;;;1.50;;
14235;SDS011;7202;50.718;7.072;2022-08-21T12:29:07;1.95;;;1.30;;
14235;SDS011;7202;50.718;7.072;2022-08-21T12:31:58;2.95;;;1.70;;
14235;SDS011;7202;50.718;7.072;2022-08-21T12:34:34;6.57;;;1.90;;
14235;SDS011;7202;50.718;7.072;2022-08-21T12:37:06;3.10;;;1.63;;
14235;SDS011;7202;50.718;7.072;2022-08-21T12:39:43;3.35;;;1.20;;
14235;SDS011;7202;50.718;7.072;2022-08-21T12:42:15;3.40;;;1.40;;
14235;SDS011;7202;50.718;7.072;2022-08-21T12:44:50;4.22;;;1.15;;
14235;SDS011;7202;50.718;7.072;2022-08-21T12:47:25;2.72;;;1.60;;
14235;SDS011;7202;50.718;7.072;2022-08-21T12:50:00;2.40;;;1.20;;
14235;SDS011;7202;50.718;7.072;2022-08-21T12:52:33;6.60;;;1.67;;
14235;SDS011;7202;50.718;7.072;2022-08-21T12:55:06;4.72;;;1.75;;
14235;SDS011;7202;50.718;7.072;2022-08-21T12:57:36;2.55;;;1.63;;
14235;SDS011;7202;50.718;7.072;2022-08-21T13:00:06;3.97;;;1.42;;
14235;SDS011;7202;50.718;7.072;2022-08-21T13:02:42;3.90;;;1.55;;
14235;SDS011;7202;50.718;7.072;2022-08-21T13:05:15;4.85;;;1.50;;
14235;SDS011;7202;50.718;7.072;2022-08-21T13:07:47;5.22;;;1.65;;
14235;SDS011;7202;50.718;7.072;2022-08-21T13:10:18;2.05;;;1.13;;
14235;SDS011;7202;50.718;7.072;2022-08-21T13:12:49;6.75;;;1.40;;
14235;SDS011;7202;50.718;7.072;2022-08-21T13:15:22;4.40;;;1.40;;
14235;SDS011;7202;50.718;7.072;2022-08-21T13:18:01;1.95;;;1.25;;
14235;SDS011;7202;50.718;7.072;2022-08-21T13:20:34;4.38;;;1.48;;
14235;SDS011;7202;50.718;7.072;2022-08-21T13:23:06;1.58;;;1.20;;
14235;SDS011;7202;50.718;7.072;2022-08-21T13:25:43;2.22;;;1.17;;
14235;SDS011;7202;50.718;7.072;2022-08-21T13:28:12;3.67;;;1.65;;
14235;SDS011;7202;50.718;7.072;2022-08-21T13:30:43;2.13;;;1.30;;
14235;SDS011;7202;50.718;7.072;2022-08-21T13:33:15;2.42;;;1.60;;
14235;SDS011;7202;50.718;7.072;2022-08-21T13:35:48;2.03;;;1.30;;
14235;SDS011;7202;50.718;7.072;2022-08-21T13:38:19;2.88;;;1.25;;
14235;SDS011;7202;50.718;7.072;2022-08-21T13:40:55;3.30;;;1.38;;
14235;SDS011;7202;50.718;7.072;2022-08-21T13:43:26;5.53;;;1.60;;
14235;SDS011;7202;50.718;7.072;2022-08-21T13:45:58;4.88;;;1.48;;
14235;SDS011;7202;50.718;7.072;2022-08-21T13:48:32;2.97;;;1.40;;
14235;SDS011;7202;50.718;7.072;2022-08-21T13:51:02;3.05;;;1.23;;
14235;SDS011;7202;50.718;7.072;2022-08-21T13:53:33;5.35;;;1.40;;
14235;SDS011;7202;50.718;7.072;2022-08-21T13:56:03;2.80;;;1.60;;
14235;SDS011;7202;50.718;7.072;2022-08-21T13:58:33;2.88;;;1.20;;
14235;SDS011;7202;50.718;7.072;2022-08-21T14:01:17;4.35;;;1.50;;
14235;SDS011;7202;50.718;7.072;2022-08-21T14:03:51;2.33;;;1.17;;
14235;SDS011;7202;50.718;7.072;2022-08-21T14:06:23;2.83;;;1.15;;
14235;SDS011;7202;50.718;7.072;2022-08-21T14:08:55;4.32;;;1.33;;
14235;SDS011;7202;50.718;7.072;2022-08-21T14:11:27;4.45;;;1.58;;
14235;SDS011;7202;50.718;7.072;2022-08-21T14:14:03;3.97;;;1.70;;
14235;SDS011;7202;50.718;7.072;2022-08-21T14:16:41;3.22;;;1.30;;
14235;SDS011;7202;50.718;7.072;2022-08-21T14:19:17;5.15;;;1.40;;
14235;SDS011;7202;50.718;7.072;2022-08-21T14:21:48;3.80;;;1.17;;
14235;SDS011;7202;50.718;7.072;2022-08-21T14:24:25;3.85;;;1.48;;
14235;SDS011;7202;50.718;7.072;2022-08-21T14:26:56;6.13;;;1.58;;
14235;SDS011;7202;50.718;7.072;2022-08-21T14:29:38;4.20;;;1.20;;
14235;SDS011;7202;50.718;7.072;2022-08-21T14:32:11;1.50;;;1.05;;
14235;SDS011;7202;50.718;7.072;2022-08-21T14:34:52;2.78;;;1.35;;
14235;SDS011;7202;50.718;7.072;2022-08-21T14:37:25;4.13;;;1.60;;
14235;SDS011;7202;50.718;7.072;2022-08-21T14:39:53;4.72;;;1.67;;
14235;SDS011;7202;50.718;7.072;2022-08-21T14:42:22;3.47;;;1.58;;
14235;SDS011;7202;50.718;7.072;2022-08-21T14:44:52;4.43;;;1.50;;
14235;SDS011;7202;50.718;7.072;2022-08-21T14:47:23;3.25;;;1.27;;
14235;SDS011;7202;50.718;7.072;2022-08-21T14:49:53;3.55;;;1.80;;
14235;SDS011;7202;50.718;7.072;2022-08-21T14:52:22;4.85;;;1.70;;
14235;SDS011;7202;50.718;7.072;2022-08-21T14:54:50;4.32;;;1.50;;
14235;SDS011;7202;50.718;7.072;2022-08-21T14:57:19;2.70;;;1.30;;
14235;SDS011;7202;50.718;7.072;2022-08-21T14:59:48;4.15;;;1.40;;
14235;SDS011;7202;50.718;7.072;2022-08-21T15:02:16;3.63;;;1.20;;
14235;SDS011;7202;50.718;7.072;2022-08-21T15:04:45;3.55;;;1.73;;
14235;SDS011;7202;50.718;7.072;2022-08-21T15:07:15;2.53;;;1.60;;
14235;SDS011;7202;50.718;7.072;2022-08-21T15:09:43;3.28;;;1.40;;
14235;SDS011;7202;50.718;7.072;2022-08-21T15:12:12;2.75;;;1.45;;
14235;SDS011;7202;50.718;7.072;2022-08-21T15:14:41;5.00;;;1.35;;
14235;SDS011;7202;50.718;7.072;2022-08-21T15:17:10;4.03;;;1.40;;
14235;SDS011;7202;50.718;7.072;2022-08-21T15:19:39;5.88;;;1.77;;
14235;SDS011;7202;50.718;7.072;2022-08-21T15:22:08;4.00;;;1.90;;
14235;SDS011;7202;50.718;7.072;2022-08-21T15:24:46;4.72;;;1.45;;
14235;SDS011;7202;50.718;7.072;2022-08-21T15:27:15;5.85;;;1.60;;
14235;SDS011;7202;50.718;7.072;2022-08-21T15:29:46;2.95;;;1.50;;
14235;SDS011;7202;50.718;7.072;2022-08-21T15:32:16;5.40;;;1.75;;
14235;SDS011;7202;50.718;7.072;2022-08-21T15:34:47;2.80;;;1.38;;